createdAt,value
2022-10-22T00:03:35.689Z,8.10
2022-10-22T00:08:41.788Z,8.13
2022-10-22T00:13:48.526Z,8.18
2022-10-22T00:18:54.692Z,8.20
2022-10-22T00:24:00.814Z,8.20
2022-10-22T00:29:06.822Z,8.20
2022-10-22T00:34:12.655Z,8.17
2022-10-22T00:39:22.110Z,8.20
2022-10-22T00:45:02.732Z,8.24
2022-10-22T00:50:13.030Z,8.24
2022-10-22T00:55:20.687Z,8.25
2022-10-22T01:00:27.201Z,8.25
2022-10-22T01:05:39.709Z,8.31
2022-10-22T01:10:56.342Z,8.37
2022-10-22T01:16:11.894Z,8.41
2022-10-22T01:21:26.661Z,8.41
2022-10-22T01:26:42.659Z,8.42
2022-10-22T01:31:54.520Z,8.47
2022-10-22T01:37:02.935Z,8.52
2022-10-22T01:42:09.158Z,8.55
2022-10-22T01:47:24.599Z,8.55
2022-10-22T01:52:46.970Z,8.61
2022-10-22T01:58:03.317Z,8.66
2022-10-22T02:03:17.472Z,8.70
2022-10-22T02:08:29.401Z,8.67
2022-10-22T02:13:41.041Z,8.65
2022-10-22T02:18:50.648Z,8.67
2022-10-22T02:35:25.931Z,8.72
2022-10-22T02:40:32.609Z,8.74
2022-10-22T02:45:38.758Z,8.77
2022-10-22T02:50:44.737Z,8.79
2022-10-22T02:55:50.858Z,8.79
2022-10-22T03:00:56.700Z,8.80
2022-10-22T03:06:02.786Z,8.81
2022-10-22T03:11:08.810Z,8.81
2022-10-22T03:16:14.946Z,8.81
2022-10-22T03:21:29.666Z,8.84
2022-10-22T03:26:35.918Z,8.89
2022-10-22T03:31:41.922Z,8.95
2022-10-22T03:36:48.697Z,8.96
2022-10-22T03:41:55.344Z,8.96
2022-10-22T03:47:02.715Z,8.98
2022-10-22T03:52:11.325Z,9.01
2022-10-22T03:57:17.246Z,8.99
2022-10-22T04:02:23.064Z,8.97
2022-10-22T04:07:28.930Z,8.97
2022-10-22T04:12:34.802Z,9.02
2022-10-22T04:17:40.889Z,9.07
2022-10-22T04:22:46.991Z,9.07
2022-10-22T04:27:52.927Z,9.07
2022-10-22T04:32:58.807Z,9.11
2022-10-22T04:38:04.606Z,9.16
2022-10-22T04:43:10.657Z,9.22
2022-10-22T04:48:16.960Z,9.22
2022-10-22T04:53:22.759Z,9.26
2022-10-22T04:58:28.585Z,9.31
2022-10-22T05:03:34.372Z,9.39
2022-10-22T05:08:40.304Z,9.38
2022-10-22T05:13:46.478Z,9.36
2022-10-22T05:18:53.474Z,9.37
2022-10-22T05:24:00.328Z,9.44
2022-10-22T05:29:06.294Z,9.46
2022-10-22T05:34:12.386Z,9.46
2022-10-22T05:39:18.250Z,9.48
2022-10-22T05:44:24.113Z,9.48
2022-10-22T05:49:29.960Z,9.52
2022-10-22T05:54:35.820Z,9.64
2022-10-22T05:59:41.845Z,9.69
2022-10-22T06:04:47.798Z,9.73
2022-10-22T06:09:54.091Z,9.78
2022-10-22T06:14:59.898Z,9.89
2022-10-22T06:20:06.992Z,10.03
2022-10-22T06:25:16.382Z,10.13
2022-10-22T06:31:11.472Z,10.22
2022-10-22T06:36:19.466Z,10.24
2022-10-22T06:41:28.646Z,10.31
2022-10-22T06:46:36.111Z,10.29
2022-10-22T06:51:42.561Z,10.32
2022-10-22T06:56:48.474Z,10.38
2022-10-22T07:01:54.433Z,10.51
2022-10-22T07:07:00.455Z,10.57
2022-10-22T07:12:07.033Z,10.57
2022-10-22T07:17:12.921Z,10.61
2022-10-22T07:22:18.729Z,10.68
2022-10-22T07:27:24.736Z,10.72
2022-10-22T07:32:30.507Z,10.73
2022-10-22T07:37:36.345Z,10.77
2022-10-22T07:42:42.220Z,10.81
2022-10-22T07:47:49.013Z,10.84
2022-10-22T07:52:57.444Z,10.89
2022-10-22T07:58:04.200Z,10.98
2022-10-22T08:03:12.320Z,11.07
2022-10-22T08:08:19.243Z,11.13
2022-10-22T08:13:26.446Z,11.17
2022-10-22T08:18:32.383Z,11.21
2022-10-22T08:23:38.800Z,11.29
2022-10-22T08:28:44.537Z,11.36
2022-10-22T08:33:50.642Z,11.39
2022-10-22T08:38:56.497Z,11.39
2022-10-22T08:44:17.975Z,11.38
2022-10-22T08:49:27.374Z,11.40
2022-10-22T08:54:45.134Z,11.41
2022-10-22T08:59:57.526Z,11.43
2022-10-22T09:05:16.512Z,11.49
2022-10-22T09:10:27.301Z,11.60
2022-10-22T09:15:33.291Z,11.66
2022-10-22T09:20:48.293Z,11.71
2022-10-22T09:25:56.229Z,11.80
2022-10-22T09:31:02.055Z,11.92
2022-10-22T09:36:13.010Z,12.00
2022-10-22T09:41:23.317Z,12.04
2022-10-22T09:46:39.840Z,12.12
2022-10-22T09:51:53.794Z,12.17
2022-10-22T09:57:06.406Z,12.25
2022-10-22T10:02:26.609Z,12.25
2022-10-22T10:07:40.018Z,12.36
2022-10-22T10:12:53.546Z,12.47
2022-10-22T10:18:10.388Z,12.52
2022-10-22T10:23:27.313Z,12.50
2022-10-22T10:28:52.982Z,12.52
2022-10-22T10:34:14.404Z,12.52
2022-10-22T10:39:29.271Z,12.49
2022-10-22T10:44:54.487Z,12.50
2022-10-22T10:50:16.524Z,12.49
2022-10-22T10:55:30.271Z,12.42
2022-10-22T11:00:41.515Z,12.39
2022-10-22T11:05:48.260Z,12.39
2022-10-22T11:11:00.495Z,12.36
2022-10-22T11:16:12.799Z,12.34
2022-10-22T11:21:27.555Z,12.36
2022-10-22T11:26:41.034Z,12.37
2022-10-22T11:31:48.683Z,12.38
2022-10-22T11:36:56.622Z,12.38
2022-10-22T11:42:05.277Z,12.39
2022-10-22T11:47:20.869Z,12.43
2022-10-22T11:52:38.665Z,12.45
2022-10-22T11:57:44.639Z,12.50
2022-10-22T12:03:04.521Z,12.53
2022-10-22T12:08:20.923Z,12.58
2022-10-22T12:13:32.799Z,12.63
2022-10-22T12:18:42.578Z,12.69
2022-10-22T12:23:49.692Z,12.75
2022-10-22T12:29:00.397Z,12.80
2022-10-22T12:34:06.505Z,12.86
2022-10-22T12:39:18.731Z,12.89
2022-10-22T12:44:24.600Z,12.97
2022-10-22T12:49:38.820Z,13.10
2022-10-22T12:54:47.888Z,13.23
2022-10-22T12:59:53.761Z,13.35
2022-10-22T13:05:21.569Z,13.46
2022-10-22T13:10:31.584Z,13.51
2022-10-22T13:15:41.186Z,13.52
2022-10-22T13:20:56.543Z,13.50
2022-10-22T13:26:12.378Z,13.52
2022-10-22T13:31:21.029Z,13.54
2022-10-22T13:36:26.831Z,13.51
2022-10-22T13:46:50.195Z,13.40
2022-10-22T13:51:56.180Z,13.33
2022-10-22T13:57:01.926Z,13.27
2022-10-22T14:02:12.234Z,13.21
2022-10-22T14:07:18.787Z,13.13
2022-10-22T14:12:25.216Z,13.06
2022-10-22T14:17:31.355Z,13.05
2022-10-22T14:22:37.007Z,12.99
2022-10-22T14:27:42.928Z,12.96
2022-10-22T14:32:49.625Z,12.92
2022-10-22T14:37:55.458Z,12.90
2022-10-22T14:43:01.483Z,12.89
2022-10-22T14:48:08.388Z,12.86
2022-10-22T14:53:16.828Z,12.84
2022-10-22T14:58:22.991Z,12.83
2022-10-22T15:03:28.791Z,12.81
2022-10-22T15:08:34.662Z,12.77
2022-10-22T15:13:42.071Z,12.78
2022-10-22T15:18:47.926Z,12.78
2022-10-22T15:23:53.954Z,12.72
2022-10-22T15:29:01.816Z,12.73
2022-10-22T15:34:07.683Z,12.71
2022-10-22T15:39:13.462Z,12.65
2022-10-22T15:44:20.944Z,12.63
2022-10-22T15:49:28.114Z,12.60
2022-10-22T15:54:33.843Z,12.58
2022-10-22T15:59:39.656Z,12.56
2022-10-22T16:04:45.399Z,12.57
2022-10-22T16:09:51.366Z,12.54
2022-10-22T16:14:57.066Z,12.52
2022-10-22T16:20:03.132Z,12.52
2022-10-22T16:25:09.884Z,12.50
2022-10-22T16:30:16.585Z,12.48
2022-10-22T16:35:22.379Z,12.48
2022-10-22T16:40:29.188Z,12.50
2022-10-22T16:45:35.073Z,12.50
2022-10-22T16:50:41.758Z,12.50
2022-10-22T16:55:47.575Z,12.49
2022-10-22T17:00:53.667Z,12.52
2022-10-22T17:06:03.737Z,12.55
2022-10-22T17:11:11.707Z,12.56
2022-10-22T17:16:19.498Z,12.51
2022-10-22T17:21:25.879Z,12.47
2022-10-22T17:26:33.341Z,12.48
2022-10-22T17:31:40.449Z,12.50
2022-10-22T17:36:48.465Z,12.53
2022-10-22T17:41:54.662Z,12.54
2022-10-22T17:47:01.723Z,12.52
2022-10-22T17:52:07.563Z,12.51
2022-10-22T17:57:13.915Z,12.53
2022-10-22T18:02:20.040Z,12.59
2022-10-22T18:07:25.901Z,12.64
2022-10-22T18:12:31.673Z,12.64
2022-10-22T18:17:40.174Z,12.64
2022-10-22T18:22:46.188Z,12.64
2022-10-22T18:27:52.144Z,12.66
2022-10-22T18:32:57.962Z,12.69
2022-10-22T18:38:03.916Z,12.73
2022-10-22T18:43:09.685Z,12.74
2022-10-22T18:48:18.295Z,12.72
2022-10-22T18:53:24.121Z,12.71
2022-10-22T18:58:30.361Z,12.72
2022-10-22T19:03:36.103Z,12.74
2022-10-22T19:08:41.908Z,12.78
2022-10-22T19:13:47.770Z,12.79
2022-10-22T19:18:59.197Z,12.79
2022-10-22T19:24:06.048Z,12.81
2022-10-22T19:29:14.456Z,12.81
2022-10-22T19:34:20.689Z,12.79
2022-10-22T19:39:26.737Z,12.76
2022-10-22T19:44:32.441Z,12.75
2022-10-22T19:49:38.213Z,12.76
2022-10-22T19:54:45.719Z,12.79
2022-10-22T19:59:51.648Z,12.81
2022-10-22T20:04:57.597Z,12.79
2022-10-22T20:10:03.465Z,12.78
2022-10-22T20:15:10.971Z,12.80
2022-10-22T20:20:17.049Z,12.81
2022-10-22T20:25:24.420Z,12.81
2022-10-22T20:30:30.418Z,12.78
2022-10-22T20:35:36.615Z,12.80
2022-10-22T20:40:42.651Z,12.80
2022-10-22T20:45:48.492Z,12.81
2022-10-22T20:50:54.805Z,12.84
2022-10-22T20:56:00.860Z,12.83
2022-10-22T21:01:10.848Z,12.81
2022-10-22T21:06:17.142Z,12.82
2022-10-22T21:11:26.171Z,12.84
2022-10-22T21:16:32.553Z,12.86
2022-10-22T21:21:38.264Z,12.87
2022-10-22T21:26:44.688Z,12.87
2022-10-22T21:31:50.522Z,12.87
2022-10-22T21:36:56.435Z,12.87
2022-10-22T21:42:02.278Z,12.87
2022-10-22T21:47:08.115Z,12.87
2022-10-22T21:52:14.026Z,12.85
2022-10-22T21:57:19.847Z,12.85
2022-10-22T22:02:28.758Z,12.85
2022-10-22T22:07:35.175Z,12.85
2022-10-22T22:12:41.363Z,12.88
2022-10-22T22:17:48.046Z,12.91
2022-10-22T22:22:53.946Z,12.94
2022-10-22T22:27:59.983Z,12.92
2022-10-22T22:33:05.735Z,12.91
2022-10-22T22:38:11.612Z,12.93
2022-10-22T22:43:17.534Z,12.92
2022-10-22T22:48:26.918Z,12.96
2022-10-22T22:53:33.926Z,12.97
2022-10-22T22:58:44.385Z,12.95
2022-10-22T23:03:54.402Z,12.95
2022-10-22T23:09:01.670Z,12.93
2022-10-22T23:14:10.593Z,12.93
2022-10-22T23:19:19.232Z,12.95
2022-10-22T23:24:27.161Z,12.97
2022-10-22T23:29:35.762Z,12.95
2022-10-22T23:34:41.929Z,12.94
2022-10-22T23:39:47.702Z,12.96
2022-10-22T23:44:53.603Z,12.99
2022-10-22T23:49:59.344Z,13.00
2022-10-22T23:55:06.083Z,12.96
